sensor_id;sensor_type;location;lat;lon;timestamp;P1;durP1;ratioP1;P2;durP2;ratioP2
19111;SDS011;9688;51.906;8.376;2022-12-19T00:01:42;38.70;;;17.57;;
19111;SDS011;9688;51.906;8.376;2022-12-19T00:04:31;39.87;;;17.17;;
19111;SDS011;9688;51.906;8.376;2022-12-19T00:07:17;39.73;;;16.07;;
19111;SDS011;9688;51.906;8.376;2022-12-19T00:10:04;38.10;;;16.33;;
19111;SDS011;9688;51.906;8.376;2022-12-19T00:12:51;45.13;;;16.70;;
19111;SDS011;9688;51.906;8.376;2022-12-19T00:15:37;38.43;;;16.07;;
19111;SDS011;9688;51.906;8.376;2022-12-19T00:18:22;37.70;;;16.73;;
19111;SDS011;9688;51.906;8.376;2022-12-19T00:21:10;38.17;;;16.53;;
19111;SDS011;9688;51.906;8.376;2022-12-19T00:23:56;37.70;;;16.60;;
19111;SDS011;9688;51.906;8.376;2022-12-19T00:26:42;44.13;;;17.73;;
19111;SDS011;9688;51.906;8.376;2022-12-19T00:29:28;38.60;;;16.67;;
19111;SDS011;9688;51.906;8.376;2022-12-19T00:32:13;40.10;;;17.07;;
19111;SDS011;9688;51.906;8.376;2022-12-19T00:34:58;42.27;;;17.27;;
19111;SDS011;9688;51.906;8.376;2022-12-19T00:37:45;41.33;;;16.80;;
19111;SDS011;9688;51.906;8.376;2022-12-19T00:40:30;39.17;;;16.33;;
19111;SDS011;9688;51.906;8.376;2022-12-19T00:43:16;44.07;;;18.50;;
19111;SDS011;9688;51.906;8.376;2022-12-19T00:46:02;40.27;;;17.30;;
19111;SDS011;9688;51.906;8.376;2022-12-19T00:48:48;35.50;;;16.97;;
19111;SDS011;9688;51.906;8.376;2022-12-19T00:51:35;42.43;;;17.70;;
19111;SDS011;9688;51.906;8.376;2022-12-19T00:54:22;43.97;;;18.33;;
19111;SDS011;9688;51.906;8.376;2022-12-19T00:57:08;41.87;;;17.40;;
19111;SDS011;9688;51.906;8.376;2022-12-19T00:59:54;39.73;;;17.20;;
19111;SDS011;9688;51.906;8.376;2022-12-19T01:02:40;39.90;;;17.40;;
19111;SDS011;9688;51.906;8.376;2022-12-19T01:05:25;42.83;;;17.27;;
19111;SDS011;9688;51.906;8.376;2022-12-19T01:08:11;40.03;;;17.73;;
19111;SDS011;9688;51.906;8.376;2022-12-19T01:10:57;40.43;;;16.80;;
19111;SDS011;9688;51.906;8.376;2022-12-19T01:13:43;38.93;;;16.30;;
19111;SDS011;9688;51.906;8.376;2022-12-19T01:16:28;39.83;;;16.67;;
19111;SDS011;9688;51.906;8.376;2022-12-19T01:19:13;38.17;;;16.23;;
19111;SDS011;9688;51.906;8.376;2022-12-19T01:21:58;41.93;;;16.73;;
19111;SDS011;9688;51.906;8.376;2022-12-19T01:24:44;36.40;;;16.00;;
19111;SDS011;9688;51.906;8.376;2022-12-19T01:27:31;47.03;;;18.33;;
19111;SDS011;9688;51.906;8.376;2022-12-19T01:30:16;42.40;;;16.70;;
19111;SDS011;9688;51.906;8.376;2022-12-19T01:33:02;47.57;;;19.03;;
19111;SDS011;9688;51.906;8.376;2022-12-19T01:35:47;42.13;;;17.40;;
19111;SDS011;9688;51.906;8.376;2022-12-19T01:38:33;35.73;;;15.47;;
19111;SDS011;9688;51.906;8.376;2022-12-19T01:41:20;38.07;;;17.73;;
19111;SDS011;9688;51.906;8.376;2022-12-19T01:44:06;40.80;;;17.50;;
19111;SDS011;9688;51.906;8.376;2022-12-19T01:46:53;41.43;;;17.83;;
19111;SDS011;9688;51.906;8.376;2022-12-19T01:49:41;42.23;;;18.57;;
19111;SDS011;9688;51.906;8.376;2022-12-19T01:52:31;41.77;;;17.57;;
19111;SDS011;9688;51.906;8.376;2022-12-19T01:55:17;49.00;;;19.00;;
19111;SDS011;9688;51.906;8.376;2022-12-19T01:58:04;47.00;;;19.17;;
19111;SDS011;9688;51.906;8.376;2022-12-19T02:00:51;43.97;;;18.10;;
19111;SDS011;9688;51.906;8.376;2022-12-19T02:03:37;45.50;;;18.17;;
19111;SDS011;9688;51.906;8.376;2022-12-19T02:06:23;44.70;;;18.40;;
19111;SDS011;9688;51.906;8.376;2022-12-19T02:09:10;39.47;;;18.87;;
19111;SDS011;9688;51.906;8.376;2022-12-19T02:11:57;40.80;;;18.57;;
19111;SDS011;9688;51.906;8.376;2022-12-19T02:14:43;46.70;;;18.43;;
19111;SDS011;9688;51.906;8.376;2022-12-19T02:17:33;47.77;;;18.20;;
19111;SDS011;9688;51.906;8.376;2022-12-19T02:27:31;45.03;;;17.47;;
19111;SDS011;9688;51.906;8.376;2022-12-19T02:30:36;46.10;;;19.30;;
19111;SDS011;9688;51.906;8.376;2022-12-19T02:33:31;42.90;;;17.57;;
19111;SDS011;9688;51.906;8.376;2022-12-19T02:36:25;42.00;;;17.83;;
19111;SDS011;9688;51.906;8.376;2022-12-19T02:39:16;37.33;;;17.20;;
19111;SDS011;9688;51.906;8.376;2022-12-19T02:42:08;44.30;;;18.30;;
19111;SDS011;9688;51.906;8.376;2022-12-19T02:44:57;42.67;;;17.10;;
19111;SDS011;9688;51.906;8.376;2022-12-19T02:47:47;40.83;;;17.67;;
19111;SDS011;9688;51.906;8.376;2022-12-19T02:50:35;39.27;;;17.53;;
19111;SDS011;9688;51.906;8.376;2022-12-19T02:53:21;41.17;;;17.97;;
19111;SDS011;9688;51.906;8.376;2022-12-19T02:56:11;40.20;;;17.30;;
19111;SDS011;9688;51.906;8.376;2022-12-19T03:02:22;44.93;;;17.83;;
19111;SDS011;9688;51.906;8.376;2022-12-19T03:05:21;44.07;;;18.77;;
19111;SDS011;9688;51.906;8.376;2022-12-19T03:08:13;40.80;;;17.70;;
19111;SDS011;9688;51.906;8.376;2022-12-19T03:11:08;41.70;;;18.70;;
19111;SDS011;9688;51.906;8.376;2022-12-19T03:13:56;44.27;;;17.83;;
19111;SDS011;9688;51.906;8.376;2022-12-19T03:16:46;40.97;;;17.13;;
19111;SDS011;9688;51.906;8.376;2022-12-19T03:19:32;42.57;;;17.90;;
19111;SDS011;9688;51.906;8.376;2022-12-19T03:22:19;42.10;;;17.63;;
19111;SDS011;9688;51.906;8.376;2022-12-19T03:25:05;37.30;;;16.27;;
19111;SDS011;9688;51.906;8.376;2022-12-19T03:27:52;39.13;;;18.13;;
19111;SDS011;9688;51.906;8.376;2022-12-19T03:30:40;41.57;;;16.13;;
19111;SDS011;9688;51.906;8.376;2022-12-19T03:33:28;46.03;;;18.33;;
19111;SDS011;9688;51.906;8.376;2022-12-19T03:36:17;46.17;;;18.40;;
19111;SDS011;9688;51.906;8.376;2022-12-19T03:39:10;49.63;;;18.17;;
19111;SDS011;9688;51.906;8.376;2022-12-19T03:41:58;42.00;;;17.80;;
19111;SDS011;9688;51.906;8.376;2022-12-19T03:45:05;40.73;;;17.47;;
19111;SDS011;9688;51.906;8.376;2022-12-19T03:47:53;44.03;;;18.23;;
19111;SDS011;9688;51.906;8.376;2022-12-19T03:50:43;42.07;;;16.83;;
19111;SDS011;9688;51.906;8.376;2022-12-19T03:53:35;40.37;;;17.20;;
19111;SDS011;9688;51.906;8.376;2022-12-19T03:56:34;37.77;;;16.03;;
19111;SDS011;9688;51.906;8.376;2022-12-19T03:59:26;38.97;;;17.33;;
19111;SDS011;9688;51.906;8.376;2022-12-19T04:02:18;38.43;;;17.97;;
19111;SDS011;9688;51.906;8.376;2022-12-19T04:05:06;44.47;;;17.27;;
19111;SDS011;9688;51.906;8.376;2022-12-19T04:07:53;43.17;;;17.50;;
19111;SDS011;9688;51.906;8.376;2022-12-19T04:10:43;40.70;;;18.43;;
19111;SDS011;9688;51.906;8.376;2022-12-19T04:13:36;40.20;;;16.93;;
19111;SDS011;9688;51.906;8.376;2022-12-19T04:16:27;42.50;;;17.17;;
19111;SDS011;9688;51.906;8.376;2022-12-19T04:19:18;37.47;;;16.70;;
19111;SDS011;9688;51.906;8.376;2022-12-19T04:22:11;43.23;;;18.07;;
19111;SDS011;9688;51.906;8.376;2022-12-19T04:25:01;40.47;;;17.20;;
19111;SDS011;9688;51.906;8.376;2022-12-19T04:27:50;42.37;;;18.13;;
19111;SDS011;9688;51.906;8.376;2022-12-19T04:30:39;42.93;;;17.80;;
19111;SDS011;9688;51.906;8.376;2022-12-19T04:33:26;39.03;;;17.20;;
19111;SDS011;9688;51.906;8.376;2022-12-19T04:36:12;38.03;;;17.50;;
19111;SDS011;9688;51.906;8.376;2022-12-19T04:38:58;38.07;;;16.10;;
19111;SDS011;9688;51.906;8.376;2022-12-19T04:41:43;42.77;;;17.43;;
19111;SDS011;9688;51.906;8.376;2022-12-19T04:44:29;36.57;;;16.00;;
19111;SDS011;9688;51.906;8.376;2022-12-19T04:47:16;39.83;;;17.37;;
19111;SDS011;9688;51.906;8.376;2022-12-19T04:50:04;43.63;;;18.40;;
19111;SDS011;9688;51.906;8.376;2022-12-19T04:52:50;44.03;;;18.63;;
19111;SDS011;9688;51.906;8.376;2022-12-19T04:55:35;43.40;;;18.23;;
19111;SDS011;9688;51.906;8.376;2022-12-19T04:58:22;43.07;;;18.93;;
19111;SDS011;9688;51.906;8.376;2022-12-19T05:01:08;41.27;;;18.40;;
19111;SDS011;9688;51.906;8.376;2022-12-19T05:03:58;45.03;;;18.33;;
19111;SDS011;9688;51.906;8.376;2022-12-19T05:06:43;40.50;;;17.67;;
19111;SDS011;9688;51.906;8.376;2022-12-19T05:09:29;40.30;;;17.87;;
19111;SDS011;9688;51.906;8.376;2022-12-19T05:12:14;43.00;;;18.67;;
19111;SDS011;9688;51.906;8.376;2022-12-19T05:15:00;41.73;;;18.10;;
19111;SDS011;9688;51.906;8.376;2022-12-19T05:17:46;43.40;;;18.77;;
19111;SDS011;9688;51.906;8.376;2022-12-19T05:20:35;37.20;;;16.27;;
19111;SDS011;9688;51.906;8.376;2022-12-19T05:23:21;39.10;;;17.53;;
19111;SDS011;9688;51.906;8.376;2022-12-19T05:26:07;41.37;;;18.87;;
19111;SDS011;9688;51.906;8.376;2022-12-19T05:28:52;34.77;;;16.10;;
19111;SDS011;9688;51.906;8.376;2022-12-19T05:31:38;41.03;;;18.10;;
19111;SDS011;9688;51.906;8.376;2022-12-19T05:34:23;40.73;;;17.83;;
19111;SDS011;9688;51.906;8.376;2022-12-19T05:37:10;43.67;;;18.73;;
19111;SDS011;9688;51.906;8.376;2022-12-19T05:39:56;38.87;;;17.23;;
19111;SDS011;9688;51.906;8.376;2022-12-19T05:42:42;41.77;;;18.30;;
19111;SDS011;9688;51.906;8.376;2022-12-19T05:45:27;41.63;;;18.27;;
19111;SDS011;9688;51.906;8.376;2022-12-19T05:48:12;43.63;;;19.03;;
19111;SDS011;9688;51.906;8.376;2022-12-19T05:50:58;44.53;;;19.73;;
19111;SDS011;9688;51.906;8.376;2022-12-19T05:53:45;43.07;;;18.87;;
19111;SDS011;9688;51.906;8.376;2022-12-19T05:56:31;43.77;;;20.50;;
19111;SDS011;9688;51.906;8.376;2022-12-19T05:59:16;43.60;;;19.13;;
19111;SDS011;9688;51.906;8.376;2022-12-19T06:02:02;49.13;;;19.67;;
19111;SDS011;9688;51.906;8.376;2022-12-19T06:04:48;48.13;;;19.50;;
19111;SDS011;9688;51.906;8.376;2022-12-19T06:07:34;47.37;;;20.00;;
19111;SDS011;9688;51.906;8.376;2022-12-19T06:10:21;47.10;;;20.37;;
19111;SDS011;9688;51.906;8.376;2022-12-19T06:13:07;43.43;;;19.80;;
19111;SDS011;9688;51.906;8.376;2022-12-19T06:15:56;47.83;;;20.10;;
19111;SDS011;9688;51.906;8.376;2022-12-19T06:18:43;48.37;;;19.37;;
19111;SDS011;9688;51.906;8.376;2022-12-19T06:21:29;46.37;;;20.03;;
19111;SDS011;9688;51.906;8.376;2022-12-19T06:24:15;48.30;;;19.90;;
19111;SDS011;9688;51.906;8.376;2022-12-19T06:27:02;48.70;;;19.67;;
19111;SDS011;9688;51.906;8.376;2022-12-19T06:29:48;46.07;;;19.33;;
19111;SDS011;9688;51.906;8.376;2022-12-19T06:32:33;52.13;;;20.73;;
19111;SDS011;9688;51.906;8.376;2022-12-19T06:35:19;44.70;;;19.33;;
19111;SDS011;9688;51.906;8.376;2022-12-19T06:38:05;44.37;;;19.33;;
19111;SDS011;9688;51.906;8.376;2022-12-19T06:40:51;47.73;;;19.47;;
19111;SDS011;9688;51.906;8.376;2022-12-19T06:43:57;46.60;;;19.93;;
19111;SDS011;9688;51.906;8.376;2022-12-19T06:46:43;43.13;;;19.40;;
19111;SDS011;9688;51.906;8.376;2022-12-19T06:49:29;48.83;;;19.80;;
19111;SDS011;9688;51.906;8.376;2022-12-19T06:52:15;46.83;;;20.03;;
19111;SDS011;9688;51.906;8.376;2022-12-19T06:55:04;50.27;;;20.20;;
19111;SDS011;9688;51.906;8.376;2022-12-19T06:57:54;48.10;;;18.97;;
19111;SDS011;9688;51.906;8.376;2022-12-19T07:00:41;46.80;;;19.47;;
19111;SDS011;9688;51.906;8.376;2022-12-19T07:03:29;47.93;;;19.93;;
19111;SDS011;9688;51.906;8.376;2022-12-19T07:06:23;46.77;;;20.47;;
19111;SDS011;9688;51.906;8.376;2022-12-19T07:09:09;50.77;;;19.77;;
19111;SDS011;9688;51.906;8.376;2022-12-19T07:11:56;59.53;;;20.77;;
19111;SDS011;9688;51.906;8.376;2022-12-19T07:14:42;45.97;;;19.70;;
19111;SDS011;9688;51.906;8.376;2022-12-19T07:17:29;49.17;;;20.10;;
19111;SDS011;9688;51.906;8.376;2022-12-19T07:20:15;49.00;;;21.57;;
19111;SDS011;9688;51.906;8.376;2022-12-19T07:23:02;50.60;;;20.33;;
19111;SDS011;9688;51.906;8.376;2022-12-19T07:25:49;54.30;;;20.87;;
19111;SDS011;9688;51.906;8.376;2022-12-19T07:28:35;68.00;;;22.17;;
19111;SDS011;9688;51.906;8.376;2022-12-19T07:31:21;62.77;;;22.97;;
19111;SDS011;9688;51.906;8.376;2022-12-19T07:34:08;60.40;;;23.03;;
19111;SDS011;9688;51.906;8.376;2022-12-19T07:36:54;55.63;;;22.93;;
19111;SDS011;9688;51.906;8.376;2022-12-19T07:39:44;58.73;;;22.60;;
19111;SDS011;9688;51.906;8.376;2022-12-19T07:42:31;55.07;;;20.80;;
19111;SDS011;9688;51.906;8.376;2022-12-19T07:45:17;69.20;;;23.03;;
19111;SDS011;9688;51.906;8.376;2022-12-19T07:48:03;75.27;;;25.07;;
19111;SDS011;9688;51.906;8.376;2022-12-19T07:50:51;66.83;;;24.60;;
19111;SDS011;9688;51.906;8.376;2022-12-19T07:53:37;61.43;;;23.73;;
19111;SDS011;9688;51.906;8.376;2022-12-19T07:56:23;50.07;;;21.17;;
19111;SDS011;9688;51.906;8.376;2022-12-19T07:59:11;65.83;;;23.37;;
19111;SDS011;9688;51.906;8.376;2022-12-19T08:01:57;51.47;;;21.60;;
19111;SDS011;9688;51.906;8.376;2022-12-19T08:04:43;56.00;;;22.63;;
19111;SDS011;9688;51.906;8.376;2022-12-19T08:07:30;61.60;;;24.10;;
19111;SDS011;9688;51.906;8.376;2022-12-19T08:10:16;57.30;;;23.70;;
19111;SDS011;9688;51.906;8.376;2022-12-19T08:13:05;60.97;;;22.20;;
19111;SDS011;9688;51.906;8.376;2022-12-19T08:15:51;64.77;;;23.80;;
19111;SDS011;9688;51.906;8.376;2022-12-19T08:18:37;56.17;;;22.17;;
19111;SDS011;9688;51.906;8.376;2022-12-19T08:21:25;46.13;;;20.13;;
19111;SDS011;9688;51.906;8.376;2022-12-19T08:24:12;58.63;;;22.23;;
19111;SDS011;9688;51.906;8.376;2022-12-19T08:27:01;52.97;;;21.40;;
19111;SDS011;9688;51.906;8.376;2022-12-19T08:29:49;53.93;;;21.23;;
19111;SDS011;9688;51.906;8.376;2022-12-19T08:32:36;49.40;;;21.97;;
19111;SDS011;9688;51.906;8.376;2022-12-19T08:35:21;45.90;;;20.17;;
19111;SDS011;9688;51.906;8.376;2022-12-19T08:38:07;50.70;;;20.97;;
19111;SDS011;9688;51.906;8.376;2022-12-19T08:40:55;48.60;;;21.80;;
19111;SDS011;9688;51.906;8.376;2022-12-19T08:43:42;55.10;;;22.50;;
19111;SDS011;9688;51.906;8.376;2022-12-19T08:46:28;43.17;;;19.10;;
19111;SDS011;9688;51.906;8.376;2022-12-19T08:49:13;45.53;;;19.77;;
19111;SDS011;9688;51.906;8.376;2022-12-19T08:51:59;43.30;;;19.50;;
19111;SDS011;9688;51.906;8.376;2022-12-19T08:54:45;44.83;;;18.73;;
19111;SDS011;9688;51.906;8.376;2022-12-19T08:57:32;42.33;;;18.37;;
19111;SDS011;9688;51.906;8.376;2022-12-19T09:00:18;44.37;;;19.07;;
19111;SDS011;9688;51.906;8.376;2022-12-19T09:03:05;45.70;;;20.13;;
19111;SDS011;9688;51.906;8.376;2022-12-19T09:05:54;41.07;;;18.30;;
19111;SDS011;9688;51.906;8.376;2022-12-19T09:08:42;46.47;;;20.53;;
19111;SDS011;9688;51.906;8.376;2022-12-19T09:11:30;38.20;;;17.20;;
19111;SDS011;9688;51.906;8.376;2022-12-19T09:14:18;45.37;;;19.17;;
19111;SDS011;9688;51.906;8.376;2022-12-19T09:17:05;43.47;;;18.80;;
19111;SDS011;9688;51.906;8.376;2022-12-19T09:19:54;40.57;;;17.27;;
19111;SDS011;9688;51.906;8.376;2022-12-19T09:22:41;41.50;;;17.90;;
19111;SDS011;9688;51.906;8.376;2022-12-19T09:25:31;45.60;;;18.10;;
19111;SDS011;9688;51.906;8.376;2022-12-19T09:28:18;39.63;;;18.07;;
19111;SDS011;9688;51.906;8.376;2022-12-19T09:31:06;41.07;;;17.03;;
19111;SDS011;9688;51.906;8.376;2022-12-19T09:33:54;41.17;;;18.33;;
19111;SDS011;9688;51.906;8.376;2022-12-19T09:36:41;35.43;;;16.13;;
19111;SDS011;9688;51.906;8.376;2022-12-19T09:39:28;31.73;;;15.83;;
19111;SDS011;9688;51.906;8.376;2022-12-19T09:42:21;29.30;;;15.07;;
19111;SDS011;9688;51.906;8.376;2022-12-19T09:48:37;33.90;;;16.43;;
19111;SDS011;9688;51.906;8.376;2022-12-19T09:51:26;28.27;;;15.40;;
19111;SDS011;9688;51.906;8.376;2022-12-19T09:54:19;28.43;;;14.77;;
19111;SDS011;9688;51.906;8.376;2022-12-19T09:57:10;29.27;;;15.13;;
19111;SDS011;9688;51.906;8.376;2022-12-19T10:00:01;29.33;;;15.13;;
19111;SDS011;9688;51.906;8.376;2022-12-19T10:02:53;29.27;;;14.43;;
19111;SDS011;9688;51.906;8.376;2022-12-19T10:05:47;26.33;;;14.07;;
19111;SDS011;9688;51.906;8.376;2022-12-19T10:08:40;28.20;;;13.50;;
19111;SDS011;9688;51.906;8.376;2022-12-19T10:11:42;26.77;;;13.23;;
19111;SDS011;9688;51.906;8.376;2022-12-19T10:14:40;23.40;;;12.13;;
19111;SDS011;9688;51.906;8.376;2022-12-19T10:17:51;27.37;;;13.73;;
19111;SDS011;9688;51.906;8.376;2022-12-19T10:20:51;29.07;;;13.67;;
19111;SDS011;9688;51.906;8.376;2022-12-19T10:23:55;23.03;;;13.33;;
19111;SDS011;9688;51.906;8.376;2022-12-19T10:27:02;27.00;;;14.10;;
19111;SDS011;9688;51.906;8.376;2022-12-19T10:30:06;21.67;;;12.20;;
19111;SDS011;9688;51.906;8.376;2022-12-19T10:32:59;22.60;;;12.37;;
19111;SDS011;9688;51.906;8.376;2022-12-19T10:35:55;23.90;;;12.13;;
19111;SDS011;9688;51.906;8.376;2022-12-19T10:38:46;20.03;;;12.20;;
19111;SDS011;9688;51.906;8.376;2022-12-19T10:41:41;21.80;;;12.00;;
19111;SDS011;9688;51.906;8.376;2022-12-19T10:44:29;17.43;;;10.47;;
19111;SDS011;9688;51.906;8.376;2022-12-19T10:47:21;24.83;;;12.77;;
19111;SDS011;9688;51.906;8.376;2022-12-19T10:50:10;21.70;;;11.27;;
19111;SDS011;9688;51.906;8.376;2022-12-19T10:53:06;19.43;;;10.27;;
19111;SDS011;9688;51.906;8.376;2022-12-19T10:55:58;20.50;;;10.33;;
19111;SDS011;9688;51.906;8.376;2022-12-19T10:58:50;16.20;;;9.83;;
19111;SDS011;9688;51.906;8.376;2022-12-19T11:01:41;21.63;;;9.53;;
19111;SDS011;9688;51.906;8.376;2022-12-19T11:04:28;17.50;;;10.27;;
19111;SDS011;9688;51.906;8.376;2022-12-19T11:07:17;18.77;;;10.17;;
19111;SDS011;9688;51.906;8.376;2022-12-19T11:10:15;15.40;;;9.07;;
19111;SDS011;9688;51.906;8.376;2022-12-19T11:13:20;16.37;;;10.17;;
19111;SDS011;9688;51.906;8.376;2022-12-19T11:16:11;17.40;;;10.47;;
19111;SDS011;9688;51.906;8.376;2022-12-19T11:19:13;17.87;;;9.93;;
19111;SDS011;9688;51.906;8.376;2022-12-19T11:22:19;17.47;;;10.33;;
19111;SDS011;9688;51.906;8.376;2022-12-19T11:25:13;19.87;;;11.03;;
19111;SDS011;9688;51.906;8.376;2022-12-19T11:28:02;22.40;;;10.20;;
19111;SDS011;9688;51.906;8.376;2022-12-19T11:30:56;16.27;;;9.47;;
19111;SDS011;9688;51.906;8.376;2022-12-19T11:33:51;14.63;;;10.17;;
19111;SDS011;9688;51.906;8.376;2022-12-19T11:36:40;17.60;;;9.37;;
19111;SDS011;9688;51.906;8.376;2022-12-19T11:39:32;14.93;;;9.30;;
19111;SDS011;9688;51.906;8.376;2022-12-19T11:42:25;16.80;;;9.37;;
19111;SDS011;9688;51.906;8.376;2022-12-19T11:45:16;15.77;;;9.00;;
19111;SDS011;9688;51.906;8.376;2022-12-19T11:48:07;16.83;;;10.00;;
19111;SDS011;9688;51.906;8.376;2022-12-19T11:50:58;16.63;;;10.10;;
19111;SDS011;9688;51.906;8.376;2022-12-19T11:53:53;14.50;;;9.13;;
19111;SDS011;9688;51.906;8.376;2022-12-19T11:56:50;17.93;;;9.27;;
19111;SDS011;9688;51.906;8.376;2022-12-19T11:59:39;15.00;;;9.17;;
19111;SDS011;9688;51.906;8.376;2022-12-19T12:02:34;14.63;;;8.93;;
19111;SDS011;9688;51.906;8.376;2022-12-19T12:05:43;20.33;;;9.90;;
19111;SDS011;9688;51.906;8.376;2022-12-19T12:08:33;14.97;;;8.80;;
19111;SDS011;9688;51.906;8.376;2022-12-19T12:11:32;13.73;;;8.93;;
19111;SDS011;9688;51.906;8.376;2022-12-19T12:14:27;13.93;;;8.60;;
19111;SDS011;9688;51.906;8.376;2022-12-19T12:17:27;15.60;;;9.07;;
19111;SDS011;9688;51.906;8.376;2022-12-19T12:20:30;14.37;;;8.57;;
19111;SDS011;9688;51.906;8.376;2022-12-19T12:23:23;13.23;;;8.40;;
19111;SDS011;9688;51.906;8.376;2022-12-19T12:26:16;13.77;;;8.80;;
19111;SDS011;9688;51.906;8.376;2022-12-19T12:29:10;14.00;;;8.70;;
19111;SDS011;9688;51.906;8.376;2022-12-19T12:32:05;15.17;;;9.27;;
19111;SDS011;9688;51.906;8.376;2022-12-19T12:35:09;15.13;;;8.40;;
19111;SDS011;9688;51.906;8.376;2022-12-19T12:38:09;11.93;;;8.03;;
19111;SDS011;9688;51.906;8.376;2022-12-19T12:41:09;14.03;;;8.03;;
19111;SDS011;9688;51.906;8.376;2022-12-19T12:44:05;11.00;;;7.70;;
19111;SDS011;9688;51.906;8.376;2022-12-19T12:46:56;12.43;;;8.07;;
19111;SDS011;9688;51.906;8.376;2022-12-19T12:49:47;11.97;;;7.97;;
19111;SDS011;9688;51.906;8.376;2022-12-19T12:52:43;11.40;;;7.50;;
19111;SDS011;9688;51.906;8.376;2022-12-19T12:55:33;14.90;;;7.70;;
19111;SDS011;9688;51.906;8.376;2022-12-19T13:01:50;11.60;;;7.13;;
19111;SDS011;9688;51.906;8.376;2022-12-19T13:04:40;11.20;;;7.67;;
19111;SDS011;9688;51.906;8.376;2022-12-19T13:07:29;10.30;;;7.10;;
19111;SDS011;9688;51.906;8.376;2022-12-19T13:10:29;13.20;;;7.77;;
19111;SDS011;9688;51.906;8.376;2022-12-19T13:13:15;13.93;;;7.23;;
19111;SDS011;9688;51.906;8.376;2022-12-19T13:16:07;13.30;;;7.27;;
19111;SDS011;9688;51.906;8.376;2022-12-19T13:19:51;15.00;;;7.33;;
19111;SDS011;9688;51.906;8.376;2022-12-19T13:22:43;11.17;;;7.17;;
19111;SDS011;9688;51.906;8.376;2022-12-19T13:28:37;16.40;;;7.63;;
19111;SDS011;9688;51.906;8.376;2022-12-19T13:31:25;11.60;;;7.20;;
19111;SDS011;9688;51.906;8.376;2022-12-19T13:34:16;13.43;;;7.40;;
19111;SDS011;9688;51.906;8.376;2022-12-19T13:37:22;12.60;;;7.13;;
19111;SDS011;9688;51.906;8.376;2022-12-19T13:40:21;10.13;;;6.67;;
19111;SDS011;9688;51.906;8.376;2022-12-19T13:43:12;10.67;;;6.47;;
19111;SDS011;9688;51.906;8.376;2022-12-19T13:46:26;8.83;;;6.40;;
19111;SDS011;9688;51.906;8.376;2022-12-19T13:49:23;9.67;;;6.70;;
19111;SDS011;9688;51.906;8.376;2022-12-19T13:52:13;11.93;;;7.17;;
19111;SDS011;9688;51.906;8.376;2022-12-19T13:54:59;10.53;;;6.83;;
19111;SDS011;9688;51.906;8.376;2022-12-19T13:57:45;10.57;;;6.80;;
19111;SDS011;9688;51.906;8.376;2022-12-19T14:00:38;11.40;;;7.20;;
19111;SDS011;9688;51.906;8.376;2022-12-19T14:03:32;12.67;;;7.37;;
19111;SDS011;9688;51.906;8.376;2022-12-19T14:06:24;12.23;;;7.50;;
19111;SDS011;9688;51.906;8.376;2022-12-19T14:09:19;12.70;;;7.40;;
19111;SDS011;9688;51.906;8.376;2022-12-19T14:12:15;15.07;;;7.37;;
19111;SDS011;9688;51.906;8.376;2022-12-19T14:15:22;16.90;;;9.13;;
19111;SDS011;9688;51.906;8.376;2022-12-19T14:18:19;17.13;;;8.97;;
19111;SDS011;9688;51.906;8.376;2022-12-19T14:21:11;13.70;;;8.37;;
19111;SDS011;9688;51.906;8.376;2022-12-19T14:24:10;15.30;;;9.10;;
19111;SDS011;9688;51.906;8.376;2022-12-19T14:26:59;18.50;;;8.63;;
19111;SDS011;9688;51.906;8.376;2022-12-19T14:29:48;16.07;;;9.83;;
19111;SDS011;9688;51.906;8.376;2022-12-19T14:32:40;17.60;;;9.57;;
19111;SDS011;9688;51.906;8.376;2022-12-19T14:35:28;15.37;;;9.17;;
19111;SDS011;9688;51.906;8.376;2022-12-19T14:38:19;15.57;;;9.67;;
19111;SDS011;9688;51.906;8.376;2022-12-19T14:41:16;15.57;;;10.33;;
19111;SDS011;9688;51.906;8.376;2022-12-19T14:44:40;14.23;;;9.77;;
19111;SDS011;9688;51.906;8.376;2022-12-19T14:47:32;14.93;;;9.83;;
19111;SDS011;9688;51.906;8.376;2022-12-19T14:53:14;12.57;;;8.53;;
19111;SDS011;9688;51.906;8.376;2022-12-19T14:56:02;16.20;;;8.83;;
19111;SDS011;9688;51.906;8.376;2022-12-19T14:58:53;17.57;;;9.37;;
19111;SDS011;9688;51.906;8.376;2022-12-19T15:01:48;15.77;;;9.37;;
19111;SDS011;9688;51.906;8.376;2022-12-19T15:04:37;16.77;;;10.00;;
19111;SDS011;9688;51.906;8.376;2022-12-19T15:07:26;16.87;;;8.97;;
19111;SDS011;9688;51.906;8.376;2022-12-19T15:10:14;15.33;;;9.23;;
19111;SDS011;9688;51.906;8.376;2022-12-19T15:13:21;16.70;;;8.83;;
19111;SDS011;9688;51.906;8.376;2022-12-19T15:16:20;17.00;;;8.63;;
19111;SDS011;9688;51.906;8.376;2022-12-19T15:19:11;12.53;;;8.13;;
19111;SDS011;9688;51.906;8.376;2022-12-19T15:21:57;14.10;;;8.90;;
19111;SDS011;9688;51.906;8.376;2022-12-19T15:24:44;19.87;;;9.30;;
19111;SDS011;9688;51.906;8.376;2022-12-19T15:27:30;16.20;;;8.97;;
19111;SDS011;9688;51.906;8.376;2022-12-19T15:30:17;14.73;;;9.77;;
19111;SDS011;9688;51.906;8.376;2022-12-19T15:33:08;18.43;;;10.33;;
19111;SDS011;9688;51.906;8.376;2022-12-19T15:35:56;17.63;;;10.40;;
19111;SDS011;9688;51.906;8.376;2022-12-19T15:38:43;20.67;;;10.33;;
19111;SDS011;9688;51.906;8.376;2022-12-19T15:41:33;17.47;;;10.30;;
19111;SDS011;9688;51.906;8.376;2022-12-19T15:44:21;16.77;;;9.27;;
19111;SDS011;9688;51.906;8.376;2022-12-19T15:47:13;15.17;;;9.83;;
19111;SDS011;9688;51.906;8.376;2022-12-19T15:50:14;17.70;;;9.07;;
19111;SDS011;9688;51.906;8.376;2022-12-19T15:53:01;16.13;;;8.57;;
19111;SDS011;9688;51.906;8.376;2022-12-19T15:56:02;16.20;;;8.87;;
19111;SDS011;9688;51.906;8.376;2022-12-19T15:58:51;15.23;;;8.30;;
19111;SDS011;9688;51.906;8.376;2022-12-19T16:01:41;16.40;;;9.00;;
19111;SDS011;9688;51.906;8.376;2022-12-19T16:04:32;13.80;;;8.30;;
19111;SDS011;9688;51.906;8.376;2022-12-19T16:07:20;13.43;;;8.10;;
19111;SDS011;9688;51.906;8.376;2022-12-19T16:10:08;11.17;;;8.03;;
19111;SDS011;9688;51.906;8.376;2022-12-19T16:12:55;17.70;;;8.57;;
19111;SDS011;9688;51.906;8.376;2022-12-19T16:15:43;17.10;;;8.50;;
19111;SDS011;9688;51.906;8.376;2022-12-19T16:18:29;12.83;;;7.80;;
19111;SDS011;9688;51.906;8.376;2022-12-19T16:21:17;14.27;;;9.40;;
19111;SDS011;9688;51.906;8.376;2022-12-19T16:24:04;13.47;;;8.17;;
19111;SDS011;9688;51.906;8.376;2022-12-19T16:26:52;16.40;;;9.40;;
19111;SDS011;9688;51.906;8.376;2022-12-19T16:29:39;15.83;;;8.43;;
19111;SDS011;9688;51.906;8.376;2022-12-19T16:32:30;13.70;;;8.20;;
19111;SDS011;9688;51.906;8.376;2022-12-19T16:35:17;16.47;;;9.00;;
19111;SDS011;9688;51.906;8.376;2022-12-19T16:38:05;13.63;;;7.90;;
19111;SDS011;9688;51.906;8.376;2022-12-19T16:40:53;12.33;;;7.77;;
19111;SDS011;9688;51.906;8.376;2022-12-19T16:43:41;15.40;;;8.40;;
19111;SDS011;9688;51.906;8.376;2022-12-19T16:46:28;15.07;;;8.40;;
19111;SDS011;9688;51.906;8.376;2022-12-19T16:49:17;12.30;;;7.53;;
19111;SDS011;9688;51.906;8.376;2022-12-19T16:52:07;15.67;;;7.77;;
19111;SDS011;9688;51.906;8.376;2022-12-19T16:54:57;13.50;;;7.60;;
19111;SDS011;9688;51.906;8.376;2022-12-19T16:57:46;10.03;;;6.80;;
19111;SDS011;9688;51.906;8.376;2022-12-19T17:00:35;10.77;;;6.70;;
19111;SDS011;9688;51.906;8.376;2022-12-19T17:03:24;9.43;;;6.43;;
19111;SDS011;9688;51.906;8.376;2022-12-19T17:06:18;8.70;;;6.23;;
19111;SDS011;9688;51.906;8.376;2022-12-19T17:09:07;13.60;;;6.73;;
19111;SDS011;9688;51.906;8.376;2022-12-19T17:12:01;12.67;;;6.97;;
19111;SDS011;9688;51.906;8.376;2022-12-19T17:14:51;12.73;;;8.03;;
19111;SDS011;9688;51.906;8.376;2022-12-19T17:17:37;16.53;;;9.23;;